createdAt,value
2023-02-28T06:07:13.218Z,5.88
2023-02-28T06:25:02.521Z,8.73
2023-02-28T07:00:43.984Z,9.40
2023-02-28T07:03:18.815Z,10.85
2023-02-28T07:05:55.405Z,12.00
2023-02-28T07:08:25.704Z,10.05
2023-02-28T07:11:04.396Z,10.00
2023-02-28T07:13:34.889Z,10.18
2023-02-28T07:16:20.426Z,11.13
2023-02-28T07:18:53.628Z,10.02
2023-02-28T07:21:31.748Z,13.18
2023-02-28T07:24:02.068Z,12.90
2023-02-28T07:26:41.485Z,14.00
2023-02-28T07:29:12.069Z,14.38
2023-02-28T07:31:48.597Z,11.93
2023-02-28T07:34:21.447Z,13.98
2023-02-28T07:37:00.470Z,13.27
2023-02-28T07:39:30.492Z,15.07
2023-02-28T07:42:07.476Z,10.98
2023-02-28T07:44:47.469Z,11.90
2023-02-28T07:47:17.578Z,11.48
2023-02-28T07:49:57.467Z,15.57
2023-02-28T07:52:35.472Z,14.48
2023-02-28T07:55:05.772Z,13.50
2023-02-28T07:57:42.561Z,14.90
2023-02-28T08:00:18.056Z,13.35
2023-02-28T08:02:54.457Z,15.55
2023-02-28T08:05:27.260Z,12.38
2023-02-28T08:08:03.524Z,13.93
2023-02-28T08:10:33.546Z,15.98
2023-02-28T08:13:13.528Z,12.57
2023-02-28T08:15:46.399Z,15.82
2023-02-28T08:18:22.483Z,13.43
2023-02-28T08:20:55.361Z,17.65
2023-02-28T08:23:35.578Z,16.23
2023-02-28T08:26:12.545Z,17.25
2023-02-28T08:28:42.569Z,16.10
2023-02-28T08:31:21.544Z,16.98
2023-02-28T08:33:54.110Z,16.13
2023-02-28T08:36:36.512Z,18.00
2023-02-28T08:39:13.904Z,15.32
2023-02-28T08:41:47.968Z,15.23
2023-02-28T08:44:25.509Z,16.67
2023-02-28T08:46:55.701Z,18.35
2023-02-28T08:49:34.524Z,15.25
2023-02-28T08:52:07.415Z,17.25
2023-02-28T08:54:46.647Z,16.02
2023-02-28T08:57:19.509Z,13.00
2023-02-28T08:59:56.787Z,15.48
2023-02-28T09:27:05.419Z,5.25
2023-02-28T09:29:43.628Z,5.57
2023-02-28T09:32:26.790Z,7.22
